createdAt,value
2023-02-16T00:01:53.576Z,-0.30
2023-02-16T00:04:30.697Z,-0.14
2023-02-16T00:06:58.156Z,-0.83
2023-02-16T00:09:25.266Z,-0.67
2023-02-16T00:12:11.622Z,-0.05
2023-02-16T00:14:39.385Z,-0.07
2023-02-16T00:17:06.095Z,-0.06
2023-02-16T00:19:38.259Z,-0.13
2023-02-16T00:22:06.840Z,-0.63
2023-02-16T00:24:33.621Z,-0.32
2023-02-16T00:27:01.120Z,-0.32
2023-02-16T00:29:37.680Z,-0.31
2023-02-16T00:32:05.971Z,-0.36
2023-02-16T00:34:41.348Z,-0.32
2023-02-16T00:37:10.698Z,-0.30
2023-02-16T00:39:39.217Z,-0.32
2023-02-16T00:42:29.103Z,-0.32
2023-02-16T00:44:57.620Z,-1.02
2023-02-16T00:47:37.750Z,-0.52
2023-02-16T00:50:16.155Z,-0.78
2023-02-16T00:52:43.768Z,-0.76
2023-02-16T00:55:13.936Z,-0.47
2023-02-16T00:58:15.976Z,-0.49
2023-02-16T01:00:54.742Z,-0.57
2023-02-16T01:03:24.706Z,-1.37
2023-02-16T01:06:15.044Z,-0.74
2023-02-16T01:09:01.228Z,-0.97
2023-02-16T01:11:28.859Z,-0.70
2023-02-16T01:13:56.890Z,-0.64
2023-02-16T01:16:26.402Z,-0.79
2023-02-16T01:18:53.762Z,-0.73
2023-02-16T01:21:21.992Z,-0.73
2023-02-16T01:23:48.829Z,-0.63
2023-02-16T01:26:18.486Z,-0.66
2023-02-16T01:28:45.328Z,-0.77
2023-02-16T01:31:14.033Z,-0.88
2023-02-16T01:33:41.978Z,-0.69
2023-02-16T01:36:31.559Z,-0.74
2023-02-16T01:38:58.116Z,-1.30
2023-02-16T01:41:43.433Z,-0.75
2023-02-16T01:44:17.279Z,-1.19
2023-02-16T01:47:07.330Z,-0.75
2023-02-16T01:49:33.981Z,-0.71
2023-02-16T01:52:12.634Z,-0.75
2023-02-16T01:54:44.368Z,-0.89
2023-02-16T01:57:23.074Z,-0.89
2023-02-16T01:59:49.867Z,-0.95
2023-02-16T02:02:42.967Z,-1.02
2023-02-16T02:05:35.402Z,-0.97
2023-02-16T02:08:23.992Z,-0.88
2023-02-16T02:11:03.633Z,-0.88
2023-02-16T02:13:39.484Z,-0.91
2023-02-16T02:16:07.289Z,-0.87
2023-02-16T02:18:34.249Z,-0.86
2023-02-16T02:22:04.140Z,-0.89
2023-02-16T02:24:48.814Z,-0.98
2023-02-16T02:27:24.270Z,-0.97
2023-02-16T02:30:01.666Z,-0.94
2023-02-16T02:32:40.545Z,-0.89
2023-02-16T02:35:46.230Z,-0.90
2023-02-16T02:38:31.900Z,-1.17
2023-02-16T02:41:08.498Z,-0.91
2023-02-16T02:43:57.162Z,-0.86
2023-02-16T02:46:37.925Z,-0.92
2023-02-16T02:49:04.696Z,-1.20
2023-02-16T02:51:32.112Z,-1.10
2023-02-16T02:54:34.704Z,-1.04
2023-02-16T02:57:44.704Z,-1.13
2023-02-16T03:00:36.509Z,-1.19
2023-02-16T03:03:09.451Z,-1.29
2023-02-16T03:05:38.500Z,-1.26
2023-02-16T03:08:14.789Z,-1.24
2023-02-16T03:11:11.073Z,-1.71
2023-02-16T03:13:47.045Z,-1.16
2023-02-16T03:16:19.025Z,-1.14
2023-02-16T03:19:06.040Z,-1.69
2023-02-16T03:21:52.928Z,-1.26
2023-02-16T03:24:43.609Z,-1.18
2023-02-16T03:27:30.920Z,-1.11
2023-02-16T03:29:59.178Z,-1.24
2023-02-16T03:32:25.928Z,-1.15
2023-02-16T03:34:52.610Z,-1.10
2023-02-16T03:37:19.370Z,-1.60
2023-02-16T03:40:05.031Z,-1.31
2023-02-16T03:42:31.581Z,-1.32
2023-02-16T03:44:58.348Z,-1.83
2023-02-16T03:47:24.938Z,-1.61
2023-02-16T03:49:51.522Z,-1.37
2023-02-16T03:52:18.086Z,-1.48
2023-02-16T03:54:44.678Z,-1.42
2023-02-16T03:57:11.318Z,-1.72
2023-02-16T03:59:38.009Z,-1.41
2023-02-16T04:02:04.848Z,-1.38
2023-02-16T04:04:31.650Z,-1.40
2023-02-16T04:06:58.251Z,-1.87
2023-02-16T04:09:24.792Z,-1.39
2023-02-16T04:12:09.934Z,-1.35
2023-02-16T04:14:36.482Z,-1.85
2023-02-16T04:17:03.934Z,-1.30
2023-02-16T04:19:30.669Z,-1.89
2023-02-16T04:21:57.230Z,-1.37
2023-02-16T04:24:23.805Z,-1.66
2023-02-16T04:26:50.364Z,-1.29
2023-02-16T04:29:16.920Z,-1.32
2023-02-16T04:31:43.556Z,-1.36
2023-02-16T04:34:10.193Z,-1.85
2023-02-16T04:36:36.845Z,-1.37
2023-02-16T04:39:03.531Z,-1.96
2023-02-16T04:41:30.236Z,-1.33
2023-02-16T04:43:56.883Z,-2.46
2023-02-16T04:46:23.996Z,-1.38
2023-02-16T04:48:50.632Z,-1.27
2023-02-16T04:51:17.430Z,-1.27
2023-02-16T04:53:44.450Z,-1.65
2023-02-16T04:56:12.358Z,-1.22
2023-02-16T04:58:39.139Z,-1.39
2023-02-16T05:01:05.996Z,-1.34
2023-02-16T05:03:33.209Z,-1.37
2023-02-16T05:06:00.036Z,-1.59
2023-02-16T05:08:26.954Z,-1.81
2023-02-16T05:11:12.066Z,-1.59
2023-02-16T05:13:57.113Z,-1.55
2023-02-16T05:16:24.932Z,-1.58
2023-02-16T05:18:51.569Z,-1.91
2023-02-16T05:21:33.427Z,-1.44
2023-02-16T05:24:04.939Z,-1.76
2023-02-16T05:26:32.249Z,-1.43
2023-02-16T05:28:58.965Z,-1.30
2023-02-16T05:31:26.499Z,-1.31
2023-02-16T05:33:53.394Z,-1.78
2023-02-16T05:36:20.266Z,-1.24
2023-02-16T05:38:47.065Z,-1.29
2023-02-16T05:41:23.563Z,-1.12
2023-02-16T05:43:54.723Z,-1.05
2023-02-16T05:46:23.666Z,-0.93
2023-02-16T05:48:51.078Z,-0.97
2023-02-16T05:51:18.519Z,-1.21
2023-02-16T05:53:45.288Z,-1.03
2023-02-16T05:56:12.466Z,-0.52
2023-02-16T05:58:39.893Z,-0.84
2023-02-16T06:01:06.742Z,-0.38
2023-02-16T06:03:33.618Z,-0.32
2023-02-16T06:06:01.988Z,-0.24
2023-02-16T06:08:29.847Z,-0.16
2023-02-16T06:10:57.014Z,-0.79
2023-02-16T06:13:24.300Z,-0.20
2023-02-16T06:15:56.195Z,0.13
2023-02-16T06:18:24.355Z,0.09
2023-02-16T06:20:51.034Z,0.59
2023-02-16T06:23:18.349Z,0.68
2023-02-16T06:25:48.629Z,0.38
2023-02-16T06:28:15.501Z,0.87
2023-02-16T06:30:42.741Z,0.76
2023-02-16T06:33:09.588Z,1.41
2023-02-16T06:35:36.156Z,1.74
2023-02-16T06:38:02.745Z,1.58
2023-02-16T06:40:29.398Z,1.90
2023-02-16T06:42:56.008Z,1.58
2023-02-16T06:45:22.578Z,1.45
2023-02-16T06:47:49.200Z,0.13
2023-02-16T06:50:17.679Z,1.23
2023-02-16T06:52:44.413Z,1.84
2023-02-16T06:55:11.117Z,1.96
2023-02-16T06:57:37.691Z,2.55
2023-02-16T07:00:07.680Z,2.64
2023-02-16T07:02:35.714Z,2.80
2023-02-16T07:05:03.284Z,3.13
2023-02-16T07:07:30.948Z,3.38
2023-02-16T07:09:58.134Z,3.03
2023-02-16T07:12:24.796Z,3.64
2023-02-16T07:14:51.351Z,4.01
2023-02-16T07:17:18.182Z,4.22
2023-02-16T07:19:44.820Z,3.62
2023-02-16T07:22:12.009Z,4.53
2023-02-16T07:24:38.589Z,4.74
2023-02-16T07:27:05.455Z,4.63
2023-02-16T07:29:32.002Z,4.70
2023-02-16T07:31:58.711Z,4.80
2023-02-16T07:34:25.737Z,4.49
2023-02-16T07:36:52.380Z,5.04
2023-02-16T07:39:19.726Z,5.35
2023-02-16T07:41:46.535Z,5.51
2023-02-16T07:44:13.079Z,5.76
2023-02-16T07:46:39.664Z,5.81
2023-02-16T07:49:06.270Z,5.94
2023-02-16T07:51:33.077Z,6.21
2023-02-16T07:54:00.657Z,6.05
2023-02-16T07:56:29.702Z,6.48
2023-02-16T07:58:58.415Z,6.87
2023-02-16T08:01:25.985Z,6.81
2023-02-16T08:03:52.761Z,6.80
2023-02-16T08:06:20.303Z,7.39
2023-02-16T08:08:47.118Z,7.07
2023-02-16T08:11:15.513Z,7.11
2023-02-16T08:13:42.716Z,3.83
2023-02-16T08:16:18.117Z,6.64
2023-02-16T08:18:45.294Z,6.40
2023-02-16T08:21:16.623Z,6.92
2023-02-16T08:23:47.668Z,7.33
2023-02-16T08:26:18.636Z,7.43
2023-02-16T08:28:50.167Z,6.78
2023-02-16T08:31:20.513Z,7.74
2023-02-16T08:33:48.063Z,7.85
2023-02-16T08:36:26.515Z,7.97
2023-02-16T08:38:53.763Z,7.66
2023-02-16T08:41:22.746Z,7.88
2023-02-16T08:43:51.208Z,8.30
2023-02-16T08:46:18.358Z,7.80
2023-02-16T08:48:45.348Z,8.85
2023-02-16T08:51:17.833Z,8.73
2023-02-16T08:53:47.227Z,8.60
2023-02-16T08:56:14.968Z,8.51
2023-02-16T08:58:41.582Z,8.78
2023-02-16T09:01:09.423Z,9.04
2023-02-16T09:03:38.600Z,9.23
2023-02-16T09:06:06.267Z,8.37
2023-02-16T09:08:34.056Z,9.20
2023-02-16T09:11:05.672Z,9.19
2023-02-16T09:13:37.921Z,9.24
2023-02-16T09:16:06.912Z,9.17
2023-02-16T09:18:33.759Z,9.13
2023-02-16T09:21:06.856Z,9.01
2023-02-16T09:23:35.800Z,9.20
2023-02-16T09:26:03.106Z,9.19
2023-02-16T09:28:30.857Z,9.24
2023-02-16T09:30:57.514Z,9.23
2023-02-16T09:33:24.470Z,9.40
2023-02-16T09:35:51.627Z,9.66
2023-02-16T09:38:18.807Z,9.47
2023-02-16T09:40:45.448Z,9.32
2023-02-16T09:43:30.987Z,9.17
2023-02-16T09:45:58.985Z,8.68
2023-02-16T09:48:38.817Z,9.27
2023-02-16T09:51:09.026Z,9.31
2023-02-16T09:53:42.814Z,9.53
2023-02-16T09:56:27.359Z,9.31
2023-02-16T09:59:20.288Z,9.79
2023-02-16T10:01:57.909Z,9.95
2023-02-16T10:04:40.294Z,9.66
2023-02-16T10:07:43.549Z,10.54
2023-02-16T10:10:16.419Z,10.51
2023-02-16T10:12:50.626Z,9.42
2023-02-16T10:15:22.639Z,10.47
2023-02-16T10:17:58.294Z,10.36
2023-02-16T10:20:32.647Z,10.87
2023-02-16T10:23:18.535Z,10.38
2023-02-16T10:25:57.658Z,10.75
2023-02-16T10:28:46.405Z,10.08
2023-02-16T10:31:20.554Z,10.31
2023-02-16T10:34:00.394Z,10.21
2023-02-16T10:36:58.091Z,10.74
2023-02-16T10:39:27.429Z,11.25
2023-02-16T10:42:05.506Z,11.33
2023-02-16T10:44:40.336Z,11.41
2023-02-16T10:47:24.839Z,10.85
2023-02-16T10:49:52.612Z,11.19
2023-02-16T10:52:20.156Z,11.22
2023-02-16T10:54:47.040Z,11.37
2023-02-16T10:57:26.909Z,11.76
2023-02-16T10:59:57.424Z,11.78
2023-02-16T11:02:25.786Z,11.72
2023-02-16T11:04:54.807Z,11.87
2023-02-16T11:07:27.489Z,11.93
2023-02-16T11:09:57.401Z,11.91
2023-02-16T11:12:27.271Z,11.98
2023-02-16T11:15:04.762Z,11.32
2023-02-16T11:17:33.502Z,11.67
2023-02-16T11:20:09.534Z,11.53
2023-02-16T11:22:39.092Z,11.47
2023-02-16T11:25:17.924Z,11.70
2023-02-16T11:27:59.359Z,10.84
2023-02-16T11:30:36.400Z,11.40
2023-02-16T11:33:18.388Z,11.80
2023-02-16T11:35:46.053Z,11.20
2023-02-16T11:38:33.055Z,11.47
2023-02-16T11:41:02.545Z,11.56
2023-02-16T11:43:32.286Z,11.78
2023-02-16T11:46:17.709Z,11.19
2023-02-16T11:48:45.021Z,12.21
2023-02-16T11:51:15.209Z,12.04
2023-02-16T11:53:44.370Z,11.44
2023-02-16T11:56:24.225Z,11.78
2023-02-16T11:59:21.412Z,12.19
2023-02-16T12:02:24.388Z,12.17
2023-02-16T12:05:08.502Z,12.23
2023-02-16T12:07:53.386Z,12.33
2023-02-16T12:10:34.581Z,11.63
2023-02-16T12:13:10.847Z,12.08
2023-02-16T12:16:07.608Z,11.71
2023-02-16T12:18:38.337Z,12.34
2023-02-16T12:21:07.764Z,12.30
2023-02-16T12:24:04.520Z,12.09
2023-02-16T12:26:52.928Z,12.02
2023-02-16T12:29:27.654Z,12.47
2023-02-16T12:32:19.323Z,12.65
2023-02-16T12:35:13.260Z,12.33
2023-02-16T12:37:58.216Z,11.76
2023-02-16T12:40:51.971Z,11.86
2023-02-16T12:43:32.848Z,12.28
2023-02-16T12:46:15.957Z,12.67
2023-02-16T12:48:53.931Z,12.95
2023-02-16T12:51:30.872Z,12.65
2023-02-16T12:54:22.224Z,12.79
2023-02-16T12:56:53.767Z,12.87
2023-02-16T12:59:26.079Z,12.81
2023-02-16T13:01:56.284Z,13.01
2023-02-16T13:04:39.256Z,12.96
2023-02-16T13:07:18.101Z,12.65
2023-02-16T13:09:44.689Z,12.69
2023-02-16T13:12:24.692Z,13.01
2023-02-16T13:15:02.258Z,12.73
2023-02-16T13:17:36.906Z,12.76
2023-02-16T13:20:04.927Z,11.73
2023-02-16T13:23:22.843Z,12.50
2023-02-16T13:25:58.200Z,12.30
2023-02-16T13:28:53.119Z,11.93
2023-02-16T13:31:32.047Z,12.21
2023-02-16T13:34:18.464Z,12.36
2023-02-16T13:37:29.696Z,12.15
2023-02-16T13:40:22.651Z,11.94
2023-02-16T13:43:10.639Z,12.02
2023-02-16T13:45:41.093Z,11.51
2023-02-16T13:48:31.721Z,10.58
2023-02-16T13:51:04.635Z,12.63
2023-02-16T13:53:38.010Z,12.66
2023-02-16T13:56:31.179Z,11.84
2023-02-16T13:59:19.613Z,12.07
2023-02-16T14:01:48.119Z,12.26
2023-02-16T14:04:23.665Z,12.51
2023-02-16T14:06:50.292Z,12.48
2023-02-16T14:09:16.920Z,12.63
2023-02-16T14:11:53.001Z,12.33
2023-02-16T14:14:43.180Z,12.37
2023-02-16T14:17:22.481Z,12.51
2023-02-16T14:19:55.435Z,12.24
2023-02-16T14:22:32.952Z,12.46
2023-02-16T14:25:03.274Z,12.54
2023-02-16T14:27:49.430Z,12.46
2023-02-16T14:30:51.801Z,12.51
2023-02-16T14:33:41.450Z,12.68
2023-02-16T14:36:24.277Z,12.64
2023-02-16T14:38:52.113Z,12.15
2023-02-16T14:41:34.196Z,12.54
2023-02-16T14:44:06.968Z,12.46
2023-02-16T14:47:07.534Z,11.85
2023-02-16T14:49:55.212Z,11.61
2023-02-16T14:52:37.150Z,11.80
2023-02-16T14:55:15.959Z,11.79
2023-02-16T14:57:50.874Z,11.68
2023-02-16T15:00:23.493Z,11.77
2023-02-16T15:03:14.689Z,11.71
2023-02-16T15:05:41.997Z,11.67
2023-02-16T15:08:23.561Z,11.41
2023-02-16T15:10:55.946Z,10.79
2023-02-16T15:13:33.293Z,11.38
2023-02-16T15:16:03.350Z,11.44
2023-02-16T15:18:38.215Z,11.26
2023-02-16T15:21:05.215Z,11.20
2023-02-16T15:23:34.782Z,11.07
2023-02-16T15:26:19.915Z,11.03
2023-02-16T15:29:01.774Z,10.35
2023-02-16T15:31:37.196Z,10.83
2023-02-16T15:34:11.951Z,10.60
2023-02-16T15:36:42.315Z,10.60
2023-02-16T15:39:14.792Z,10.54
2023-02-16T15:41:45.790Z,10.51
2023-02-16T15:44:29.619Z,10.25
2023-02-16T15:47:22.544Z,10.06
2023-02-16T15:49:49.183Z,9.85
2023-02-16T15:52:37.834Z,9.98
2023-02-16T15:55:06.758Z,9.89
2023-02-16T15:57:39.036Z,9.68
2023-02-16T16:00:15.894Z,9.65
2023-02-16T16:02:47.542Z,9.37
2023-02-16T16:05:25.893Z,9.19
2023-02-16T16:07:53.639Z,8.92
2023-02-16T16:10:30.661Z,8.97
2023-02-16T16:13:13.345Z,8.43
2023-02-16T16:15:47.236Z,7.68
2023-02-16T16:18:46.642Z,8.44
2023-02-16T16:21:18.117Z,7.82
2023-02-16T16:24:02.425Z,8.06
2023-02-16T16:26:35.326Z,7.92
2023-02-16T16:29:02.731Z,7.21
2023-02-16T16:31:29.387Z,7.69
2023-02-16T16:33:56.014Z,7.75
2023-02-16T16:36:41.459Z,7.52
2023-02-16T16:39:09.725Z,7.08
2023-02-16T16:41:36.381Z,7.21
2023-02-16T16:44:03.084Z,7.02
2023-02-16T16:46:30.690Z,6.97
2023-02-16T16:49:00.751Z,6.90
2023-02-16T16:51:33.339Z,6.88
2023-02-16T16:54:06.923Z,6.78
2023-02-16T16:56:41.196Z,6.66
2023-02-16T16:59:08.285Z,6.64
2023-02-16T17:01:35.096Z,5.57
2023-02-16T17:04:01.916Z,6.40
2023-02-16T17:06:28.699Z,6.38
2023-02-16T17:08:55.332Z,6.43
2023-02-16T17:11:28.997Z,6.31
2023-02-16T17:13:57.716Z,5.63
2023-02-16T17:16:35.506Z,6.31
2023-02-16T17:19:03.587Z,6.22
2023-02-16T17:21:30.330Z,6.21
2023-02-16T17:23:56.931Z,6.02
2023-02-16T17:26:23.790Z,5.22
2023-02-16T17:28:50.883Z,5.88
2023-02-16T17:31:17.800Z,5.80
2023-02-16T17:33:44.945Z,5.63
2023-02-16T17:36:15.129Z,5.58
2023-02-16T17:38:42.481Z,5.61
2023-02-16T17:41:19.249Z,5.65
2023-02-16T17:43:45.852Z,5.49
2023-02-16T17:46:13.776Z,4.77
2023-02-16T17:48:40.795Z,5.22
2023-02-16T17:51:19.543Z,4.81
2023-02-16T17:53:46.124Z,4.65
2023-02-16T17:56:14.406Z,4.58
2023-02-16T17:58:41.632Z,4.67
2023-02-16T18:01:13.046Z,4.59
2023-02-16T18:03:39.623Z,4.64
2023-02-16T18:06:06.719Z,4.45
2023-02-16T18:08:33.719Z,4.28
2023-02-16T18:11:03.104Z,4.42
2023-02-16T18:13:29.974Z,4.23
2023-02-16T18:15:58.633Z,4.09
2023-02-16T18:18:25.305Z,4.13
2023-02-16T18:20:51.973Z,3.99
2023-02-16T18:23:18.544Z,3.98
2023-02-16T18:25:45.804Z,3.81
2023-02-16T18:28:21.097Z,3.83
2023-02-16T18:30:50.137Z,3.79
2023-02-16T18:33:17.916Z,2.96
2023-02-16T18:35:44.673Z,3.69
2023-02-16T18:38:11.372Z,3.34
2023-02-16T18:40:38.000Z,3.58
2023-02-16T18:43:04.845Z,2.65
2023-02-16T18:45:31.434Z,3.58
2023-02-16T18:47:58.033Z,3.57
2023-02-16T18:50:24.686Z,3.44
2023-02-16T18:52:51.320Z,3.45
2023-02-16T18:55:18.004Z,3.14
2023-02-16T18:57:44.655Z,3.43
2023-02-16T19:00:12.726Z,3.32
2023-02-16T19:02:41.077Z,3.23
2023-02-16T19:05:10.459Z,3.21
2023-02-16T19:07:37.307Z,2.83
2023-02-16T19:10:05.418Z,3.07
2023-02-16T19:12:32.071Z,3.14
2023-02-16T19:14:58.664Z,3.09
2023-02-16T19:17:25.253Z,2.81
2023-02-16T19:19:51.815Z,2.82
2023-02-16T19:22:18.458Z,2.81
2023-02-16T19:24:45.278Z,2.83
2023-02-16T19:27:11.970Z,2.69
2023-02-16T19:29:38.696Z,2.62
2023-02-16T19:32:05.382Z,2.70
2023-02-16T19:34:32.881Z,2.62
2023-02-16T19:36:59.531Z,2.38
2023-02-16T19:39:26.158Z,2.58
2023-02-16T19:41:52.992Z,2.48
2023-02-16T19:44:19.606Z,2.08
2023-02-16T19:46:46.320Z,2.37
2023-02-16T19:49:13.903Z,2.19
2023-02-16T19:51:40.728Z,2.24
2023-02-16T19:54:07.602Z,2.38
2023-02-16T19:56:36.331Z,2.32
2023-02-16T19:59:03.049Z,1.72
2023-02-16T20:01:29.718Z,2.34
2023-02-16T20:03:57.535Z,1.76
2023-02-16T20:06:39.150Z,2.27
2023-02-16T20:09:06.139Z,1.98
2023-02-16T20:11:34.070Z,2.12
2023-02-16T20:14:01.550Z,1.45
2023-02-16T20:16:28.655Z,1.41
2023-02-16T20:18:56.959Z,1.92
2023-02-16T20:21:26.185Z,2.01
2023-02-16T20:23:58.994Z,1.27
2023-02-16T20:26:37.588Z,1.85
2023-02-16T20:29:06.745Z,1.82
2023-02-16T20:31:37.517Z,1.68
2023-02-16T20:34:05.582Z,1.99
2023-02-16T20:36:32.393Z,2.01
2023-02-16T20:38:59.390Z,1.57
2023-02-16T20:41:26.123Z,1.94
2023-02-16T20:43:53.011Z,1.88
2023-02-16T20:46:19.883Z,1.78
2023-02-16T20:48:46.566Z,1.87
2023-02-16T20:51:14.001Z,1.81
2023-02-16T20:53:41.270Z,1.14
2023-02-16T20:56:14.662Z,1.66
2023-02-16T20:58:42.798Z,1.44
2023-02-16T21:01:15.016Z,1.51
2023-02-16T21:03:41.836Z,1.54
2023-02-16T21:06:08.852Z,1.53
2023-02-16T21:08:35.459Z,1.61
2023-02-16T21:11:02.325Z,1.51
2023-02-16T21:13:29.113Z,1.60
2023-02-16T21:15:55.823Z,1.56
2023-02-16T21:18:22.807Z,1.60
2023-02-16T21:20:49.500Z,1.32
2023-02-16T21:23:16.097Z,1.60
2023-02-16T21:25:42.645Z,1.46
2023-02-16T21:28:09.217Z,1.57
2023-02-16T21:30:36.111Z,1.43
2023-02-16T21:33:02.749Z,1.45
2023-02-16T21:35:29.321Z,1.33
2023-02-16T21:37:56.682Z,1.47
2023-02-16T21:40:42.157Z,1.50
2023-02-16T21:43:08.746Z,1.37
2023-02-16T21:45:35.414Z,0.76
2023-02-16T21:48:20.503Z,0.99
2023-02-16T21:50:47.029Z,1.02
2023-02-16T21:53:13.650Z,1.05
2023-02-16T21:56:09.623Z,1.24
2023-02-16T21:58:36.191Z,1.06
2023-02-16T22:01:02.830Z,1.01
2023-02-16T22:03:29.599Z,1.11
2023-02-16T22:05:56.212Z,1.09
2023-02-16T22:08:22.866Z,1.08
2023-02-16T22:10:49.435Z,1.12
2023-02-16T22:13:15.994Z,1.01
2023-02-16T22:15:42.583Z,1.16
2023-02-16T22:18:09.162Z,1.21
2023-02-16T22:20:35.828Z,1.17
2023-02-16T22:23:03.453Z,1.11
2023-02-16T22:25:30.056Z,1.03
2023-02-16T22:27:56.631Z,0.96
2023-02-16T22:30:23.296Z,0.93
2023-02-16T22:32:51.398Z,0.92
2023-02-16T22:35:18.181Z,0.89
2023-02-16T22:37:44.746Z,0.94
2023-02-16T22:40:11.534Z,0.08
2023-02-16T22:42:38.210Z,0.56
2023-02-16T22:45:05.126Z,0.83
2023-02-16T22:47:31.695Z,0.60
2023-02-16T22:49:58.276Z,0.87
2023-02-16T22:52:24.910Z,0.60
2023-02-16T22:54:54.181Z,0.78
2023-02-16T22:57:20.780Z,0.01
2023-02-16T22:59:47.342Z,0.67
2023-02-16T23:02:14.177Z,0.61
2023-02-16T23:04:43.209Z,0.48
2023-02-16T23:07:10.851Z,0.60
2023-02-16T23:09:37.714Z,0.35
2023-02-16T23:12:04.741Z,0.58
2023-02-16T23:14:31.463Z,0.52
2023-02-16T23:16:58.037Z,0.57
2023-02-16T23:19:26.426Z,0.40
2023-02-16T23:21:53.991Z,0.56
2023-02-16T23:24:23.036Z,0.53
2023-02-16T23:26:50.407Z,0.37
2023-02-16T23:29:17.426Z,0.62
2023-02-16T23:31:46.893Z,0.53
2023-02-16T23:34:14.868Z,-0.71
2023-02-16T23:36:41.817Z,0.51
2023-02-16T23:39:12.034Z,0.49
2023-02-16T23:41:39.654Z,0.50
2023-02-16T23:44:07.468Z,0.48
2023-02-16T23:46:34.488Z,0.47
2023-02-16T23:49:01.389Z,0.00
2023-02-16T23:51:28.200Z,0.47
2023-02-16T23:53:54.781Z,0.48
2023-02-16T23:56:26.421Z,-0.10
2023-02-16T23:58:57.622Z,0.38
